createdAt,value
2018-09-15T00:02:20.607Z,65.65
2018-09-15T00:04:56.704Z,65.68
2018-09-15T00:07:33.390Z,66.08
2018-09-15T00:10:09.573Z,66.56
2018-09-15T00:12:37.967Z,66.90
2018-09-15T00:15:05.512Z,66.22
2018-09-15T00:17:33.055Z,66.41
2018-09-15T00:20:00.646Z,66.87
2018-09-15T00:22:28.176Z,66.87
2018-09-15T00:24:55.705Z,66.64
2018-09-15T00:27:23.273Z,67.08
2018-09-15T00:29:50.831Z,67.17
2018-09-15T00:32:18.397Z,66.73
2018-09-15T00:34:45.921Z,66.96
2018-09-15T00:37:13.492Z,66.77
2018-09-15T00:39:41.031Z,68.02
2018-09-15T00:42:08.595Z,68.35
2018-09-15T00:44:36.197Z,68.69
2018-09-15T00:47:03.745Z,68.54
2018-09-15T00:49:31.286Z,68.38
2018-09-15T00:51:58.849Z,68.89
2018-09-15T00:54:26.422Z,69.02
2018-09-15T00:56:53.930Z,68.58
2018-09-15T00:59:21.509Z,68.23
2018-09-15T01:01:50.295Z,68.49
2018-09-15T01:04:17.861Z,68.43
2018-09-15T01:06:45.384Z,69.48
2018-09-15T01:09:17.026Z,68.79
2018-09-15T01:11:44.546Z,68.75
2018-09-15T01:14:12.166Z,68.56
2018-09-15T01:16:39.671Z,68.95
2018-09-15T01:19:07.416Z,68.63
2018-09-15T01:21:34.986Z,68.68
2018-09-15T01:24:02.533Z,68.12
2018-09-15T01:26:30.115Z,67.98
2018-09-15T01:28:59.705Z,68.43
2018-09-15T01:31:27.301Z,67.85
2018-09-15T01:34:00.493Z,68.33
2018-09-15T01:36:28.016Z,69.55
2018-09-15T01:38:55.599Z,69.17
2018-09-15T01:41:23.144Z,68.82
2018-09-15T01:43:54.626Z,69.11
2018-09-15T01:46:22.193Z,68.66
2018-09-15T01:48:49.770Z,69.01
2018-09-15T01:51:17.292Z,68.55
2018-09-15T01:53:44.885Z,68.82
2018-09-15T01:56:12.419Z,67.75
2018-09-15T01:58:39.948Z,68.43
2018-09-15T02:01:07.533Z,68.26
2018-09-15T02:03:35.116Z,69.27
2018-09-15T02:06:02.680Z,69.27
2018-09-15T02:08:30.241Z,69.16
2018-09-15T02:10:57.764Z,68.32
2018-09-15T02:13:25.362Z,67.96
2018-09-15T02:15:52.949Z,68.27
2018-09-15T02:18:20.508Z,68.30
2018-09-15T02:20:52.636Z,68.66
2018-09-15T02:23:20.186Z,69.44
2018-09-15T02:25:47.723Z,69.42
2018-09-15T02:28:15.277Z,70.19
2018-09-15T02:30:42.794Z,70.65
2018-09-15T02:33:10.368Z,70.38
2018-09-15T02:35:37.879Z,70.99
2018-09-15T02:38:05.437Z,71.15
2018-09-15T02:40:32.951Z,71.15
2018-09-15T02:43:00.512Z,70.23
2018-09-15T02:45:28.124Z,70.91
2018-09-15T02:47:55.692Z,70.43
2018-09-15T02:50:23.216Z,70.36
2018-09-15T02:52:50.819Z,70.96
2018-09-15T02:55:22.614Z,71.44
2018-09-15T02:57:50.203Z,71.50
2018-09-15T03:00:17.782Z,72.32
2018-09-15T03:02:45.353Z,72.55
2018-09-15T03:05:14.900Z,71.91
2018-09-15T03:07:42.519Z,72.67
2018-09-15T03:10:10.027Z,72.64
2018-09-15T03:12:44.922Z,71.93
2018-09-15T03:15:12.475Z,72.30
2018-09-15T03:17:40.026Z,71.99
2018-09-15T03:20:07.586Z,71.84
2018-09-15T03:22:35.127Z,72.19
2018-09-15T03:25:02.687Z,73.75
2018-09-15T03:27:30.225Z,73.04
2018-09-15T03:29:57.793Z,72.76
2018-09-15T03:32:25.323Z,72.80
2018-09-15T03:34:53.007Z,73.29
2018-09-15T03:37:20.584Z,73.06
2018-09-15T03:39:48.117Z,73.51
2018-09-15T03:42:15.705Z,73.58
2018-09-15T03:44:43.277Z,74.42
2018-09-15T03:47:10.857Z,73.86
2018-09-15T03:49:38.401Z,75.16
2018-09-15T03:52:05.982Z,74.31
2018-09-15T03:54:33.534Z,73.75
2018-09-15T03:57:01.105Z,73.64
2018-09-15T03:59:28.648Z,72.80
2018-09-15T04:01:57.167Z,72.89
2018-09-15T04:04:24.728Z,73.40
2018-09-15T04:06:52.401Z,72.85
2018-09-15T04:09:23.684Z,72.94
2018-09-15T04:11:51.210Z,73.21
2018-09-15T04:14:18.802Z,73.51
2018-09-15T04:16:46.335Z,73.66
2018-09-15T04:19:13.936Z,74.28
2018-09-15T04:21:41.577Z,74.85
2018-09-15T04:24:09.159Z,74.90
2018-09-15T04:26:36.698Z,75.42
2018-09-15T04:29:04.471Z,74.56
2018-09-15T04:31:32.047Z,74.67
2018-09-15T04:33:59.591Z,74.71
2018-09-15T04:36:27.183Z,74.40
2018-09-15T04:38:54.704Z,74.77
2018-09-15T04:41:22.263Z,74.87
2018-09-15T04:43:49.830Z,74.52
2018-09-15T04:46:17.409Z,75.26
2018-09-15T04:48:45.002Z,75.66
2018-09-15T04:51:12.545Z,75.20
2018-09-15T04:53:46.131Z,75.64
2018-09-15T04:56:13.690Z,75.53
2018-09-15T04:58:41.283Z,76.04
2018-09-15T05:01:08.815Z,74.50
2018-09-15T05:03:36.429Z,75.39
2018-09-15T05:06:03.997Z,76.13
2018-09-15T05:08:31.502Z,76.91
2018-09-15T05:10:59.088Z,76.47
2018-09-15T05:13:26.752Z,76.86
2018-09-15T05:15:54.338Z,75.84
2018-09-15T05:18:22.035Z,75.90
2018-09-15T05:20:49.614Z,76.45
2018-09-15T05:23:17.219Z,75.99
2018-09-15T05:25:44.802Z,75.60
2018-09-15T05:28:12.382Z,76.40
2018-09-15T05:30:40.016Z,77.57
2018-09-15T05:33:07.618Z,76.82
2018-09-15T05:35:35.152Z,77.15
2018-09-15T05:38:02.899Z,76.65
2018-09-15T05:40:30.407Z,76.99
2018-09-15T05:42:57.950Z,76.67
2018-09-15T05:45:25.552Z,77.10
2018-09-15T05:47:53.080Z,77.00
2018-09-15T05:50:20.634Z,77.29
2018-09-15T05:52:48.208Z,78.21
2018-09-15T05:55:16.867Z,77.89
2018-09-15T05:57:44.443Z,77.03
2018-09-15T06:00:11.959Z,77.54
2018-09-15T06:02:39.630Z,78.10
2018-09-15T06:05:07.215Z,78.98
2018-09-15T06:07:34.742Z,78.52
2018-09-15T06:10:02.348Z,78.78
2018-09-15T06:12:29.877Z,78.32
2018-09-15T06:14:57.434Z,78.23
2018-09-15T06:17:24.989Z,78.40
2018-09-15T06:19:52.527Z,78.59
2018-09-15T06:22:20.131Z,78.59
2018-09-15T06:24:47.639Z,78.34
2018-09-15T06:27:15.229Z,78.37
2018-09-15T06:29:42.768Z,78.79
2018-09-15T06:32:10.354Z,78.32
2018-09-15T06:34:38.144Z,78.22
2018-09-15T06:37:05.673Z,78.84
2018-09-15T06:39:33.262Z,78.55
2018-09-15T06:42:01.085Z,78.96
2018-09-15T06:44:29.901Z,79.23
2018-09-15T06:46:57.953Z,79.29
2018-09-15T06:49:25.834Z,78.71
2018-09-15T06:51:54.921Z,78.78
2018-09-15T06:54:24.665Z,78.53
2018-09-15T06:56:52.327Z,78.99
2018-09-15T06:59:19.984Z,78.97
2018-09-15T07:01:47.692Z,79.28
2018-09-15T07:04:19.040Z,79.04
2018-09-15T07:06:46.620Z,79.00
2018-09-15T07:09:14.438Z,78.82
2018-09-15T07:11:42.261Z,78.64
2018-09-15T07:14:11.927Z,78.96
2018-09-15T07:16:41.630Z,78.58
2018-09-15T07:19:09.340Z,78.54
2018-09-15T07:21:37.403Z,78.78
2018-09-15T07:24:04.997Z,78.51
2018-09-15T07:26:32.731Z,77.71
2018-09-15T07:29:00.309Z,78.57
2018-09-15T07:31:31.271Z,77.93
2018-09-15T07:33:58.823Z,77.95
2018-09-15T07:36:26.406Z,77.48
2018-09-15T07:38:59.733Z,77.23
2018-09-15T07:41:27.463Z,77.54
2018-09-15T07:43:55.033Z,77.15
2018-09-15T07:46:23.713Z,77.28
2018-09-15T07:48:51.352Z,78.08
2018-09-15T07:51:20.055Z,77.79
2018-09-15T07:53:48.839Z,77.21
2018-09-15T07:56:20.153Z,76.80
2018-09-15T07:58:47.741Z,76.78
2018-09-15T08:01:17.234Z,77.18
2018-09-15T08:03:44.822Z,77.09
2018-09-15T08:06:12.397Z,76.84
2018-09-15T08:08:39.987Z,76.90
2018-09-15T08:11:07.810Z,76.41
2018-09-15T08:13:35.365Z,76.23
2018-09-15T08:16:17.876Z,76.05
2018-09-15T08:18:45.458Z,76.39
2018-09-15T08:21:13.025Z,76.40
2018-09-15T08:23:41.002Z,76.33
2018-09-15T08:26:11.865Z,75.91
2018-09-15T08:28:39.437Z,76.07
2018-09-15T08:31:11.709Z,75.54
2018-09-15T08:33:39.762Z,76.25
2018-09-15T08:36:14.136Z,75.93
2018-09-15T08:38:42.370Z,75.91
2018-09-15T08:41:10.063Z,74.91
2018-09-15T08:43:37.676Z,75.91
2018-09-15T08:46:15.925Z,75.05
2018-09-15T08:48:44.378Z,75.56
2018-09-15T08:51:12.570Z,74.62
2018-09-15T08:53:40.393Z,74.67
2018-09-15T08:56:07.987Z,75.05
2018-09-15T08:58:36.039Z,75.52
2018-09-15T09:01:04.936Z,75.43
2018-09-15T09:03:34.474Z,75.91
2018-09-15T09:06:03.273Z,76.72
2018-09-15T09:08:30.894Z,77.67
2018-09-15T09:10:58.449Z,78.23
2018-09-15T09:13:27.548Z,79.30
2018-09-15T09:15:55.304Z,77.94
2018-09-15T09:18:26.689Z,79.47
2018-09-15T09:20:54.258Z,80.03
2018-09-15T09:23:21.836Z,79.63
2018-09-15T09:25:49.466Z,79.18
2018-09-15T09:28:17.035Z,79.54
2018-09-15T09:30:44.618Z,79.21
2018-09-15T09:33:16.854Z,78.93
2018-09-15T09:35:44.469Z,78.05
2018-09-15T09:38:19.433Z,77.28
2018-09-15T09:40:46.982Z,76.84
2018-09-15T09:43:14.548Z,77.89
2018-09-15T09:45:42.116Z,76.25
2018-09-15T09:48:09.659Z,75.73
2018-09-15T09:50:37.202Z,76.31
2018-09-15T09:53:08.522Z,75.90
2018-09-15T09:55:36.093Z,75.21
2018-09-15T09:58:03.647Z,75.72
2018-09-15T10:00:32.059Z,75.15
2018-09-15T10:02:59.623Z,74.84
2018-09-15T10:05:27.158Z,75.02
2018-09-15T10:07:54.743Z,74.86
2018-09-15T10:10:22.267Z,74.66
2018-09-15T10:12:50.998Z,74.32
2018-09-15T10:15:18.541Z,73.79
2018-09-15T10:17:46.128Z,74.17
2018-09-15T10:20:13.709Z,73.91
2018-09-15T10:22:41.292Z,74.01
2018-09-15T10:25:08.873Z,74.30
2018-09-15T10:27:36.409Z,75.42
2018-09-15T10:30:04.003Z,75.65
2018-09-15T10:32:32.226Z,75.58
2018-09-15T10:34:59.947Z,75.84
2018-09-15T10:37:27.544Z,76.01
2018-09-15T10:39:55.069Z,75.51
2018-09-15T10:42:22.626Z,75.10
2018-09-15T10:44:51.289Z,75.21
2018-09-15T10:47:18.823Z,74.51
2018-09-15T10:49:46.400Z,73.78
2018-09-15T10:52:13.984Z,73.50
2018-09-15T10:54:41.543Z,72.51
2018-09-15T10:57:09.094Z,72.97
2018-09-15T10:59:36.665Z,72.84
2018-09-15T11:02:08.415Z,71.96
2018-09-15T11:04:36.001Z,71.87
2018-09-15T11:07:03.535Z,71.92
2018-09-15T11:09:31.068Z,71.82
2018-09-15T11:11:58.607Z,71.59
2018-09-15T11:14:26.141Z,72.22
2018-09-15T11:16:53.691Z,71.42
2018-09-15T11:19:21.227Z,72.14
2018-09-15T11:21:48.779Z,72.23
2018-09-15T11:24:16.304Z,72.15
2018-09-15T11:26:43.880Z,71.89
2018-09-15T11:29:11.449Z,72.44
2018-09-15T11:31:38.999Z,69.83
2018-09-15T11:34:06.606Z,70.90
2018-09-15T11:36:34.149Z,69.07
2018-09-15T11:39:01.680Z,70.34
2018-09-15T11:41:29.271Z,65.94
2018-09-15T11:43:56.817Z,65.70
2018-09-15T11:46:24.346Z,65.16
2018-09-15T11:48:51.998Z,64.22
2018-09-15T11:51:19.604Z,63.15
2018-09-15T11:53:47.188Z,61.46
2018-09-15T11:56:14.753Z,61.51
2018-09-15T11:58:42.291Z,60.80
2018-09-15T12:01:09.898Z,59.43
2018-09-15T12:03:37.428Z,57.83
2018-09-15T12:06:04.974Z,57.78
2018-09-15T12:08:32.556Z,58.41
2018-09-15T12:11:00.136Z,58.51
2018-09-15T12:13:27.669Z,58.97
2018-09-15T12:15:56.147Z,59.29
2018-09-15T12:18:23.719Z,58.91
2018-09-15T12:20:51.316Z,58.54
2018-09-15T12:23:18.853Z,59.05
2018-09-15T12:25:46.417Z,59.36
2018-09-15T12:28:13.945Z,59.76
2018-09-15T12:30:41.500Z,59.62
2018-09-15T12:33:09.040Z,60.00
2018-09-15T12:35:36.606Z,61.21
2018-09-15T12:38:04.265Z,60.39
2018-09-15T12:40:31.802Z,60.19
2018-09-15T12:42:59.381Z,60.40
2018-09-15T12:45:26.894Z,60.65
2018-09-15T12:47:54.491Z,60.25
2018-09-15T12:50:22.002Z,59.89
2018-09-15T12:52:49.584Z,59.99
2018-09-15T12:55:17.127Z,60.09
2018-09-15T12:57:44.800Z,59.98
2018-09-15T13:00:12.249Z,59.40
2018-09-15T13:02:46.468Z,59.53
2018-09-15T13:05:13.993Z,59.81
2018-09-15T13:07:41.551Z,59.68
2018-09-15T13:10:09.077Z,58.84
2018-09-15T13:12:36.652Z,58.66
2018-09-15T13:15:04.159Z,58.25
2018-09-15T13:17:31.744Z,57.70
2018-09-15T13:19:59.273Z,58.55
2018-09-15T13:22:26.833Z,58.84
2018-09-15T13:24:54.393Z,58.39
2018-09-15T13:27:21.928Z,59.49
2018-09-15T13:29:49.534Z,60.07
2018-09-15T13:32:17.051Z,60.48
2018-09-15T13:34:44.646Z,60.78
2018-09-15T13:37:12.178Z,60.81
2018-09-15T13:39:39.957Z,60.78
2018-09-15T13:42:07.484Z,60.96
2018-09-15T13:44:36.408Z,61.39
2018-09-15T13:47:03.938Z,61.06
2018-09-15T13:49:31.527Z,61.37
2018-09-15T13:51:59.068Z,61.21
2018-09-15T13:54:26.606Z,61.61
2018-09-15T13:56:54.169Z,61.01
2018-09-15T13:59:21.691Z,60.61
2018-09-15T14:01:49.286Z,61.03
2018-09-15T14:04:16.879Z,61.11
2018-09-15T14:06:44.401Z,61.10
2018-09-15T14:09:11.937Z,60.75
2018-09-15T14:11:39.498Z,60.93
2018-09-15T14:14:07.077Z,60.81
2018-09-15T14:16:34.684Z,60.58
2018-09-15T14:19:02.157Z,61.28
2018-09-15T14:21:29.733Z,61.81
2018-09-15T14:23:57.555Z,60.66
2018-09-15T14:26:25.109Z,60.58
2018-09-15T14:28:52.679Z,60.45
2018-09-15T14:31:20.267Z,60.47
2018-09-15T14:33:47.837Z,59.89
2018-09-15T14:36:15.423Z,60.52
2018-09-15T14:38:42.975Z,60.17
2018-09-15T14:41:10.559Z,60.55
2018-09-15T14:43:39.087Z,60.81
2018-09-15T14:46:06.674Z,60.57
2018-09-15T14:48:34.248Z,60.66
2018-09-15T14:51:01.816Z,59.70
2018-09-15T14:53:29.344Z,61.21
2018-09-15T14:56:00.358Z,59.94
2018-09-15T14:58:27.899Z,60.82
2018-09-15T15:00:55.460Z,61.00
2018-09-15T15:03:23.011Z,61.04
2018-09-15T15:05:50.607Z,61.26
2018-09-15T15:08:24.399Z,60.87
2018-09-15T15:10:51.969Z,62.33
2018-09-15T15:13:19.553Z,61.15
2018-09-15T15:15:47.077Z,61.63
2018-09-15T15:18:14.678Z,61.56
2018-09-15T15:20:42.267Z,60.73
2018-09-15T15:23:09.826Z,61.29
2018-09-15T15:25:42.214Z,61.75
2018-09-15T15:28:09.757Z,61.72
2018-09-15T15:30:37.286Z,62.02
2018-09-15T15:33:04.857Z,60.99
2018-09-15T15:35:32.497Z,61.29
2018-09-15T15:38:00.028Z,61.04
2018-09-15T15:40:27.561Z,60.93
2018-09-15T15:42:55.092Z,60.40
2018-09-15T15:45:22.676Z,60.93
2018-09-15T15:47:50.232Z,60.00
2018-09-15T15:50:17.757Z,60.35
2018-09-15T15:52:45.353Z,61.04
2018-09-15T15:55:12.935Z,61.11
2018-09-15T15:57:40.461Z,61.11
2018-09-15T16:00:08.013Z,61.37
2018-09-15T16:02:35.545Z,61.83
2018-09-15T16:05:03.132Z,60.56
2018-09-15T16:07:30.716Z,61.08
2018-09-15T16:09:58.213Z,61.51
2018-09-15T16:12:25.772Z,61.68
2018-09-15T16:14:53.328Z,61.66
2018-09-15T16:17:20.961Z,61.05
2018-09-15T16:19:48.487Z,61.10
2018-09-15T16:22:16.048Z,61.94
2018-09-15T16:24:43.621Z,62.05
2018-09-15T16:27:11.229Z,61.39
2018-09-15T16:29:38.777Z,61.80
2018-09-15T16:32:06.358Z,61.50
2018-09-15T16:34:33.918Z,61.89
2018-09-15T16:37:01.498Z,61.58
2018-09-15T16:39:29.039Z,61.51
2018-09-15T16:41:56.636Z,61.58
2018-09-15T16:44:24.163Z,62.91
2018-09-15T16:46:51.784Z,63.19
2018-09-15T16:49:19.457Z,62.84
2018-09-15T16:51:46.965Z,63.35
2018-09-15T16:54:14.533Z,63.33
2018-09-15T16:56:42.084Z,63.79
2018-09-15T16:59:09.671Z,64.07
2018-09-15T17:01:37.209Z,64.07
2018-09-15T17:04:04.809Z,64.24
2018-09-15T17:06:32.322Z,63.92
2018-09-15T17:08:59.853Z,64.07
2018-09-15T17:11:27.407Z,64.37
2018-09-15T17:13:56.204Z,63.84
2018-09-15T17:16:23.796Z,63.84
2018-09-15T17:18:51.352Z,64.03
2018-09-15T17:21:18.864Z,64.13
2018-09-15T17:23:46.518Z,63.78
2018-09-15T17:26:14.038Z,63.25
2018-09-15T17:28:41.575Z,63.57
2018-09-15T17:31:09.170Z,63.88
2018-09-15T17:33:40.768Z,64.00
2018-09-15T17:36:08.383Z,64.29
2018-09-15T17:38:35.930Z,64.91
2018-09-15T17:41:03.502Z,64.58
2018-09-15T17:43:31.138Z,64.95
2018-09-15T17:45:58.712Z,65.46
2018-09-15T17:48:26.235Z,65.02
2018-09-15T17:50:53.793Z,65.52
2018-09-15T17:53:21.381Z,65.47
2018-09-15T17:55:48.913Z,65.79
2018-09-15T17:58:16.512Z,65.03
2018-09-15T18:00:44.054Z,65.29
2018-09-15T18:03:11.631Z,65.57
2018-09-15T18:05:39.196Z,65.42
2018-09-15T18:08:06.736Z,66.42
2018-09-15T18:10:34.324Z,65.52
2018-09-15T18:13:01.872Z,66.66
2018-09-15T18:15:29.446Z,66.44
2018-09-15T18:17:57.005Z,67.32
2018-09-15T18:20:24.613Z,68.13
2018-09-15T18:22:52.173Z,67.44
2018-09-15T18:25:19.747Z,67.40
2018-09-15T18:27:47.313Z,67.07
2018-09-15T18:30:17.044Z,67.65
2018-09-15T18:32:44.681Z,67.29
2018-09-15T18:35:16.985Z,67.78
2018-09-15T18:37:44.643Z,68.67
2018-09-15T18:40:12.306Z,68.74
2018-09-15T18:42:41.129Z,68.98
2018-09-15T18:45:08.851Z,68.67
2018-09-15T18:47:36.446Z,68.94
2018-09-15T18:50:04.173Z,69.08
2018-09-15T18:52:32.065Z,68.86
2018-09-15T18:54:59.969Z,69.58
2018-09-15T18:57:27.631Z,69.58
2018-09-15T18:59:55.388Z,69.22
2018-09-15T19:02:22.926Z,69.50
2018-09-15T19:04:50.527Z,69.69
2018-09-15T19:07:18.351Z,69.67
2018-09-15T19:09:46.161Z,69.04
2018-09-15T19:12:13.715Z,69.25
2018-09-15T19:14:41.361Z,69.22
2018-09-15T19:17:08.899Z,70.14
2018-09-15T19:19:36.483Z,69.51
2018-09-15T19:22:04.016Z,69.86
2018-09-15T19:24:32.053Z,70.45
2018-09-15T19:26:59.653Z,69.61
2018-09-15T19:29:27.220Z,69.71
2018-09-15T19:31:54.819Z,70.10
2018-09-15T19:34:24.386Z,69.76
2018-09-15T19:36:51.973Z,69.83
2018-09-15T19:39:19.523Z,69.98
2018-09-15T19:41:47.050Z,69.88
2018-09-15T19:44:14.621Z,69.97
2018-09-15T19:46:42.132Z,69.59
2018-09-15T19:49:09.727Z,69.46
2018-09-15T19:51:37.257Z,69.17
2018-09-15T19:54:04.818Z,69.76
2018-09-15T19:56:32.451Z,69.28
2018-09-15T19:59:00.258Z,69.97
2018-09-15T20:01:27.950Z,70.03
2018-09-15T20:03:55.496Z,69.97
2018-09-15T20:06:23.020Z,69.66
2018-09-15T20:08:50.603Z,69.33
2018-09-15T20:11:18.133Z,69.47
2018-09-15T20:13:45.665Z,69.51
2018-09-15T20:16:12.845Z,69.55
2018-09-15T20:18:39.921Z,69.21
2018-09-15T20:21:06.957Z,69.25
2018-09-15T20:23:35.178Z,69.33
2018-09-15T20:26:04.174Z,69.57
2018-09-15T20:28:32.878Z,69.37
2018-09-15T20:31:00.442Z,69.00
2018-09-15T20:33:28.580Z,70.04
2018-09-15T20:35:56.221Z,70.11
2018-09-15T20:38:24.760Z,69.48
2018-09-15T20:40:52.350Z,68.99
2018-09-15T20:43:19.914Z,69.60
2018-09-15T20:45:48.682Z,69.64
2018-09-15T20:48:16.216Z,69.25
2018-09-15T20:50:43.789Z,69.02
2018-09-15T20:53:11.358Z,68.77
2018-09-15T20:55:38.956Z,69.12
2018-09-15T20:58:08.481Z,69.09
2018-09-15T21:00:36.232Z,69.05
2018-09-15T21:03:03.751Z,69.13
2018-09-15T21:05:31.270Z,69.77
2018-09-15T21:07:58.842Z,69.76
2018-09-15T21:10:26.415Z,69.64
2018-09-15T21:12:54.182Z,69.02
2018-09-15T21:15:21.834Z,69.43
2018-09-15T21:17:50.592Z,69.25
2018-09-15T21:20:18.204Z,69.61
2018-09-15T21:22:45.746Z,69.69
2018-09-15T21:25:13.262Z,69.67
2018-09-15T21:27:40.843Z,69.50
2018-09-15T21:30:08.539Z,69.28
2018-09-15T21:32:36.088Z,68.86
2018-09-15T21:35:04.690Z,69.02
2018-09-15T21:37:32.285Z,68.94
2018-09-15T21:39:59.882Z,69.54
2018-09-15T21:42:27.409Z,69.66
2018-09-15T21:44:56.932Z,69.31
2018-09-15T21:47:25.660Z,69.55
2018-09-15T21:49:53.381Z,69.19
2018-09-15T21:52:22.106Z,68.61
2018-09-15T21:54:49.684Z,68.79
2018-09-15T21:57:17.266Z,68.70
2018-09-15T21:59:44.891Z,68.47
2018-09-15T22:02:12.429Z,67.88
2018-09-15T22:04:40.924Z,68.51
2018-09-15T22:07:08.461Z,68.50
2018-09-15T22:09:36.131Z,69.23
2018-09-15T22:12:03.625Z,69.12
2018-09-15T22:14:32.090Z,69.30
2018-09-15T22:16:59.624Z,68.92
2018-09-15T22:19:27.167Z,68.61
2018-09-15T22:21:54.962Z,68.19
2018-09-15T22:24:24.554Z,67.94
2018-09-15T22:26:52.134Z,67.74
2018-09-15T22:29:19.675Z,67.54
2018-09-15T22:31:48.219Z,67.39
2018-09-15T22:34:15.878Z,67.42
2018-09-15T22:36:46.777Z,68.09
2018-09-15T22:39:14.360Z,68.07
2018-09-15T22:41:42.012Z,67.77
2018-09-15T22:44:09.597Z,68.17
2018-09-15T22:46:37.181Z,68.29
2018-09-15T22:49:04.710Z,68.15
2018-09-15T22:51:32.232Z,68.06
2018-09-15T22:54:05.442Z,68.55
2018-09-15T22:56:33.105Z,68.07
2018-09-15T22:59:00.843Z,68.36
2018-09-15T23:01:28.478Z,68.31
2018-09-15T23:03:56.050Z,68.13
2018-09-15T23:06:30.403Z,68.34
2018-09-15T23:08:57.964Z,68.56
2018-09-15T23:11:27.517Z,69.02
2018-09-15T23:13:55.077Z,69.57
2018-09-15T23:16:22.640Z,69.03
2018-09-15T23:18:50.177Z,68.70
2018-09-15T23:21:17.747Z,69.01
2018-09-15T23:23:45.322Z,69.36
2018-09-15T23:26:12.856Z,69.34
2018-09-15T23:28:40.428Z,68.99
2018-09-15T23:31:07.986Z,69.73
2018-09-15T23:33:35.541Z,69.41
2018-09-15T23:36:03.121Z,69.11
2018-09-15T23:38:31.888Z,69.27
2018-09-15T23:40:59.434Z,69.68
2018-09-15T23:43:28.346Z,70.55
2018-09-15T23:45:55.967Z,71.05
2018-09-15T23:48:23.500Z,71.01
2018-09-15T23:50:53.035Z,71.17
2018-09-15T23:53:20.618Z,71.02
2018-09-15T23:55:48.138Z,70.96
2018-09-15T23:58:15.694Z,70.35
